createdAt,value
2023-05-22T00:00:24.727Z,0.00
2023-05-22T00:01:24.718Z,0.00
2023-05-22T00:02:24.789Z,0.00
2023-05-22T00:03:24.751Z,0.00
2023-05-22T00:04:24.670Z,0.00
2023-05-22T00:05:24.757Z,0.00
2023-05-22T00:06:24.738Z,0.00
2023-05-22T00:07:24.654Z,0.00
2023-05-22T00:08:24.767Z,0.00
2023-05-22T00:09:24.670Z,0.00
2023-05-22T00:10:24.630Z,0.00
2023-05-22T00:11:24.627Z,0.00
2023-05-22T00:12:24.590Z,0.00
2023-05-22T00:13:24.602Z,0.00
2023-05-22T00:14:24.600Z,0.00
2023-05-22T00:15:24.598Z,0.00
2023-05-22T00:16:24.574Z,0.00
2023-05-22T00:17:24.622Z,0.00
2023-05-22T00:18:24.532Z,0.00
2023-05-22T00:19:24.564Z,0.00
2023-05-22T00:20:24.524Z,0.00
2023-05-22T00:21:24.492Z,0.00
2023-05-22T00:22:24.484Z,0.00
2023-05-22T00:23:24.485Z,0.00
2023-05-22T00:24:24.478Z,0.00
2023-05-22T00:25:24.486Z,0.00
2023-05-22T00:26:24.470Z,0.00
2023-05-22T00:27:24.442Z,0.00
2023-05-22T00:28:24.452Z,0.00
2023-05-22T00:29:24.426Z,0.00
2023-05-22T00:30:24.443Z,0.00
2023-05-22T00:31:24.402Z,0.00
2023-05-22T00:32:24.532Z,0.00
2023-05-22T00:33:24.382Z,0.00
2023-05-22T00:34:24.423Z,0.00
2023-05-22T00:35:24.350Z,0.00
2023-05-22T00:36:24.360Z,0.00
2023-05-22T00:37:24.338Z,0.00
2023-05-22T00:38:24.376Z,0.00
2023-05-22T00:39:24.360Z,0.00
2023-05-22T00:40:24.321Z,0.00
2023-05-22T00:41:24.320Z,0.00
2023-05-22T00:42:24.367Z,0.00
2023-05-22T00:43:24.289Z,0.00
2023-05-22T00:44:24.265Z,0.00
2023-05-22T00:45:24.251Z,0.00
2023-05-22T00:46:24.309Z,0.00
2023-05-22T00:47:24.318Z,0.00
2023-05-22T00:48:24.263Z,0.00
2023-05-22T00:49:24.234Z,0.00
2023-05-22T00:50:24.217Z,0.00
2023-05-22T00:51:24.218Z,0.00
2023-05-22T00:52:24.191Z,0.00
2023-05-22T00:53:24.199Z,0.00
2023-05-22T00:54:24.170Z,0.00
2023-05-22T00:55:24.174Z,0.00
2023-05-22T00:56:24.162Z,0.00
2023-05-22T00:57:24.191Z,0.00
2023-05-22T00:58:24.138Z,0.00
2023-05-22T00:59:24.180Z,0.00
2023-05-22T01:00:24.106Z,0.00
2023-05-22T01:01:24.134Z,0.00
2023-05-22T01:02:24.094Z,0.00
2023-05-22T01:03:24.171Z,0.00
2023-05-22T01:04:24.136Z,0.00
2023-05-22T01:05:24.056Z,0.00
2023-05-22T01:06:24.037Z,0.00
2023-05-22T01:07:24.057Z,0.00
2023-05-22T01:08:24.001Z,0.00
2023-05-22T01:09:24.015Z,0.00
2023-05-22T01:10:24.006Z,0.00
2023-05-22T01:11:24.003Z,0.00
2023-05-22T01:12:23.981Z,0.00
2023-05-22T01:13:23.975Z,0.00
2023-05-22T01:14:23.981Z,0.00
2023-05-22T01:15:23.947Z,0.00
2023-05-22T01:16:23.965Z,0.00
2023-05-22T01:17:23.936Z,0.00
2023-05-22T01:18:23.898Z,0.00
2023-05-22T01:19:23.923Z,0.00
2023-05-22T01:20:23.915Z,0.00
2023-05-22T01:21:23.914Z,0.00
2023-05-22T01:22:23.887Z,0.00
2023-05-22T01:23:23.888Z,0.00
2023-05-22T01:24:23.852Z,0.00
2023-05-22T01:25:23.891Z,0.00
2023-05-22T01:26:23.815Z,0.00
2023-05-22T01:27:23.812Z,0.00
2023-05-22T01:28:23.812Z,0.00
2023-05-22T01:29:23.826Z,0.00
2023-05-22T01:30:23.813Z,0.00
2023-05-22T01:31:23.798Z,0.00
2023-05-22T01:32:23.809Z,0.00
2023-05-22T01:33:23.810Z,0.00
2023-05-22T01:34:23.749Z,0.00
2023-05-22T01:35:23.740Z,0.00
2023-05-22T01:36:23.742Z,0.00
2023-05-22T01:37:23.738Z,0.00
2023-05-22T01:38:23.700Z,0.00
2023-05-22T01:39:23.709Z,0.00
2023-05-22T01:40:23.670Z,0.00
2023-05-22T01:41:23.676Z,0.00
2023-05-22T01:42:23.677Z,0.00
2023-05-22T01:43:23.665Z,0.00
2023-05-22T01:44:23.665Z,0.00
2023-05-22T01:45:23.630Z,0.00
2023-05-22T01:46:23.691Z,0.00
2023-05-22T01:47:23.639Z,0.00
2023-05-22T01:48:23.622Z,0.00
2023-05-22T01:49:23.591Z,0.00
2023-05-22T01:50:23.592Z,0.00
2023-05-22T01:51:23.576Z,0.00
2023-05-22T01:52:23.575Z,0.00
2023-05-22T01:53:23.578Z,0.00
2023-05-22T01:54:23.559Z,0.00
2023-05-22T01:55:23.543Z,0.00
2023-05-22T01:56:23.522Z,0.00
2023-05-22T01:57:23.522Z,0.00
2023-05-22T01:58:23.521Z,0.00
2023-05-22T01:59:23.488Z,0.00
2023-05-22T02:00:23.532Z,0.00
2023-05-22T02:01:23.500Z,0.00
2023-05-22T02:02:23.674Z,0.00
2023-05-22T02:03:23.634Z,0.00
2023-05-22T02:04:23.439Z,0.00
2023-05-22T02:05:23.431Z,0.00
2023-05-22T02:06:23.429Z,0.00
2023-05-22T02:07:23.412Z,0.00
2023-05-22T02:08:23.405Z,0.00
2023-05-22T02:09:23.423Z,0.00
2023-05-22T02:10:23.385Z,0.00
2023-05-22T02:11:23.382Z,0.00
2023-05-22T02:12:23.368Z,0.00
2023-05-22T02:13:23.365Z,0.00
2023-05-22T02:14:23.333Z,0.00
2023-05-22T02:15:23.348Z,0.00
2023-05-22T02:16:23.398Z,0.00
2023-05-22T02:17:23.304Z,0.00
2023-05-22T02:18:23.371Z,0.00
2023-05-22T02:19:23.319Z,0.00
2023-05-22T02:20:23.300Z,0.00
2023-05-22T02:21:23.276Z,0.00
2023-05-22T02:22:23.276Z,0.00
2023-05-22T02:23:23.231Z,0.00
2023-05-22T02:24:23.235Z,0.00
2023-05-22T02:25:23.241Z,0.00
2023-05-22T02:26:23.245Z,0.00
2023-05-22T02:27:23.190Z,0.00
2023-05-22T02:28:23.210Z,0.00
2023-05-22T02:29:23.172Z,0.00
2023-05-22T02:30:23.201Z,0.00
2023-05-22T02:31:23.225Z,0.00
2023-05-22T02:32:23.215Z,0.00
2023-05-22T02:33:23.142Z,0.00
2023-05-22T02:34:23.154Z,0.00
2023-05-22T02:35:23.204Z,0.00
2023-05-22T02:36:23.103Z,0.00
2023-05-22T02:37:23.100Z,0.00
2023-05-22T02:38:23.097Z,0.00
2023-05-22T02:39:23.099Z,0.00
2023-05-22T02:40:23.082Z,0.00
2023-05-22T02:41:23.063Z,0.00
2023-05-22T02:42:23.045Z,0.00
2023-05-22T02:43:23.056Z,0.00
2023-05-22T02:44:23.058Z,0.00
2023-05-22T02:45:23.060Z,0.00
2023-05-22T02:46:23.073Z,0.00
2023-05-22T02:47:22.987Z,0.00
2023-05-22T02:48:23.019Z,0.00
2023-05-22T02:49:22.974Z,0.00
2023-05-22T02:50:22.976Z,0.00
2023-05-22T02:51:22.966Z,0.00
2023-05-22T02:52:22.944Z,0.00
2023-05-22T02:53:22.943Z,0.00
2023-05-22T02:54:22.915Z,0.00
2023-05-22T02:55:23.013Z,0.00
2023-05-22T02:56:22.902Z,0.00
2023-05-22T02:57:22.897Z,0.00
2023-05-22T02:58:22.914Z,0.00
2023-05-22T02:59:22.868Z,0.00
2023-05-22T03:00:22.876Z,0.00
2023-05-22T03:01:22.807Z,1.00
2023-05-22T03:02:22.789Z,1.00
2023-05-22T03:03:22.843Z,1.00
2023-05-22T03:04:22.761Z,1.00
2023-05-22T03:05:22.752Z,1.00
2023-05-22T03:06:22.821Z,2.00
2023-05-22T03:07:22.739Z,2.00
2023-05-22T03:08:22.720Z,2.00
2023-05-22T03:09:22.727Z,2.00
2023-05-22T03:10:22.703Z,3.00
2023-05-22T03:11:22.696Z,3.00
2023-05-22T03:12:22.679Z,3.00
2023-05-22T03:13:22.675Z,4.00
2023-05-22T03:14:22.666Z,3.00
2023-05-22T03:15:22.688Z,6.00
2023-05-22T03:16:22.658Z,3.00
2023-05-22T03:17:22.634Z,5.00
2023-05-22T03:18:23.206Z,7.00
2023-05-22T03:19:22.770Z,7.00
2023-05-22T03:20:22.649Z,14.00
2023-05-22T03:21:22.610Z,10.00
2023-05-22T03:22:22.591Z,12.00
2023-05-22T03:23:22.590Z,17.00
2023-05-22T03:24:22.559Z,19.00
2023-05-22T03:25:22.562Z,16.00
2023-05-22T03:26:22.548Z,18.00
2023-05-22T03:27:22.530Z,26.00
2023-05-22T03:28:22.508Z,24.00
2023-05-22T03:29:22.539Z,27.00
2023-05-22T03:30:22.508Z,34.00
2023-05-22T03:31:22.484Z,34.00
2023-05-22T03:32:22.482Z,36.00
2023-05-22T03:33:22.590Z,40.00
2023-05-22T03:34:22.460Z,43.00
2023-05-22T03:35:22.463Z,45.00
2023-05-22T03:36:22.427Z,52.00
2023-05-22T03:37:22.452Z,58.00
2023-05-22T03:38:22.414Z,63.00
2023-05-22T03:39:22.410Z,70.00
2023-05-22T03:40:22.406Z,74.00
2023-05-22T03:41:22.375Z,78.00
2023-05-22T03:42:22.390Z,86.00
2023-05-22T03:43:22.379Z,97.00
2023-05-22T03:44:22.383Z,104.00
2023-05-22T03:45:22.374Z,115.00
2023-05-22T03:46:22.438Z,136.00
2023-05-22T03:47:22.361Z,148.00
2023-05-22T03:48:22.334Z,166.00
2023-05-22T03:49:22.318Z,187.00
2023-05-22T03:50:22.309Z,203.00
2023-05-22T03:51:22.281Z,218.00
2023-05-22T03:52:22.260Z,243.00
2023-05-22T03:53:22.278Z,266.00
2023-05-22T03:54:22.274Z,291.00
2023-05-22T03:55:22.244Z,319.00
2023-05-22T03:56:22.239Z,353.00
2023-05-22T03:57:22.205Z,387.00
2023-05-22T03:58:22.249Z,421.00
2023-05-22T03:59:22.191Z,457.00
2023-05-22T04:00:22.199Z,483.00
2023-05-22T04:01:22.182Z,527.00
2023-05-22T04:02:22.239Z,555.00
2023-05-22T04:03:22.244Z,599.00
2023-05-22T04:04:22.156Z,641.00
2023-05-22T04:05:22.182Z,681.00
2023-05-22T04:06:22.130Z,721.00
2023-05-22T04:07:22.133Z,769.00
2023-05-22T04:08:22.118Z,821.00
2023-05-22T04:09:22.076Z,860.00
2023-05-22T04:10:22.101Z,910.00
2023-05-22T04:11:22.116Z,961.00
2023-05-22T04:12:22.109Z,1007.00
2023-05-22T04:13:22.078Z,1058.00
2023-05-22T04:14:22.085Z,1115.00
2023-05-22T04:15:22.048Z,1169.00
2023-05-22T04:16:22.136Z,1228.00
2023-05-22T04:17:22.115Z,1284.00
2023-05-22T04:18:21.998Z,1344.00
2023-05-22T04:19:22.376Z,1397.00
2023-05-22T04:20:21.990Z,1459.00
2023-05-22T04:21:22.049Z,1539.00
2023-05-22T04:22:21.949Z,1636.00
2023-05-22T04:23:22.022Z,1702.00
2023-05-22T04:24:21.935Z,1794.00
2023-05-22T04:25:21.940Z,1869.00
2023-05-22T04:26:21.940Z,1892.00
2023-05-22T04:27:21.894Z,1883.00
2023-05-22T04:28:21.881Z,1042.00
2023-05-22T04:29:21.898Z,1295.00
2023-05-22T04:30:21.887Z,2165.00
2023-05-22T04:31:21.935Z,2445.00
2023-05-22T04:32:21.903Z,2872.00
2023-05-22T04:33:21.850Z,2928.00
2023-05-22T04:34:21.857Z,2981.00
2023-05-22T04:35:21.841Z,3560.00
2023-05-22T04:36:21.824Z,3172.00
2023-05-22T04:37:21.806Z,2828.00
2023-05-22T04:38:21.792Z,2727.00
2023-05-22T04:39:21.849Z,4110.00
2023-05-22T04:40:21.819Z,3633.00
2023-05-22T04:41:22.571Z,3399.00
2023-05-22T04:42:21.773Z,3755.00
2023-05-22T04:43:21.756Z,5144.00
2023-05-22T04:44:21.785Z,4847.00
2023-05-22T04:45:21.734Z,4733.00
2023-05-22T04:46:21.827Z,6405.00
2023-05-22T04:47:21.732Z,6389.00
2023-05-22T04:48:21.690Z,5562.00
2023-05-22T04:49:21.678Z,6533.00
2023-05-22T04:50:21.668Z,7158.00
2023-05-22T04:51:21.661Z,7092.00
2023-05-22T04:52:21.659Z,7402.00
2023-05-22T04:53:21.968Z,7501.00
2023-05-22T04:54:21.636Z,7222.00
2023-05-22T04:55:21.601Z,8971.00
2023-05-22T04:56:34.799Z,10052.00
2023-05-22T04:57:21.629Z,7847.00
2023-05-22T04:58:21.601Z,8465.00
2023-05-22T04:59:21.581Z,9400.00
2023-05-22T05:00:21.577Z,8898.00
2023-05-22T05:01:21.672Z,9118.00
2023-05-22T05:02:21.583Z,10498.00
2023-05-22T05:03:21.572Z,10205.00
2023-05-22T05:04:21.555Z,9491.00
2023-05-22T05:05:21.507Z,9692.00
2023-05-22T05:06:21.514Z,14180.00
2023-05-22T05:07:21.534Z,11690.00
2023-05-22T05:08:21.489Z,7050.00
2023-05-22T05:09:21.458Z,7495.00
2023-05-22T05:10:21.459Z,4712.00
2023-05-22T05:11:21.436Z,4432.00
2023-05-22T05:12:21.458Z,4410.00
2023-05-22T05:13:21.442Z,9502.00
2023-05-22T05:14:21.479Z,13200.00
2023-05-22T05:15:21.389Z,8131.00
2023-05-22T05:16:21.409Z,5824.00
2023-05-22T05:17:21.401Z,5632.00
2023-05-22T05:18:21.396Z,2109.00
2023-05-22T05:19:21.525Z,3356.00
2023-05-22T05:20:21.368Z,10389.00
2023-05-22T05:21:21.377Z,10991.00
2023-05-22T05:22:21.383Z,11902.00
2023-05-22T05:23:21.322Z,9770.00
2023-05-22T05:24:21.363Z,12812.00
2023-05-22T05:25:21.297Z,12157.00
2023-05-22T05:26:21.314Z,12897.00
2023-05-22T05:27:21.294Z,13157.00
2023-05-22T05:28:21.271Z,13512.00
2023-05-22T05:29:21.269Z,14215.00
2023-05-22T05:30:21.255Z,13495.00
2023-05-22T05:31:21.285Z,14053.00
2023-05-22T05:32:21.341Z,13437.00
2023-05-22T05:33:21.281Z,13451.00
2023-05-22T05:34:21.209Z,13779.00
2023-05-22T05:35:21.219Z,14289.00
2023-05-22T05:36:21.210Z,14249.00
2023-05-22T05:37:21.191Z,13851.00
2023-05-22T05:38:21.185Z,14900.00
2023-05-22T05:39:21.181Z,14992.00
2023-05-22T05:40:21.172Z,14357.00
2023-05-22T05:41:21.150Z,14619.00
2023-05-22T05:42:21.161Z,14374.00
2023-05-22T05:43:21.125Z,13859.00
2023-05-22T05:44:21.127Z,14596.00
2023-05-22T05:45:21.138Z,15266.00
2023-05-22T05:46:21.144Z,15388.00
2023-05-22T05:47:21.123Z,15136.00
2023-05-22T05:48:21.087Z,14753.00
2023-05-22T05:49:21.077Z,15411.00
2023-05-22T05:50:21.082Z,15572.00
2023-05-22T05:51:21.033Z,15184.00
2023-05-22T05:52:21.041Z,15500.00
2023-05-22T05:53:21.018Z,10802.00
2023-05-22T05:54:21.083Z,11385.00
2023-05-22T05:55:20.999Z,13595.00
2023-05-22T05:56:21.008Z,14281.00
2023-05-22T05:57:21.024Z,14449.00
2023-05-22T05:58:20.983Z,14464.00
2023-05-22T05:59:20.987Z,14420.00
2023-05-22T06:00:20.974Z,15112.00
2023-05-22T06:01:20.948Z,14365.00
2023-05-22T06:02:21.049Z,16146.00
2023-05-22T06:03:21.087Z,18033.00
2023-05-22T06:04:20.925Z,11180.00
2023-05-22T06:05:20.999Z,13145.00
2023-05-22T06:06:20.907Z,3192.00
2023-05-22T06:07:20.906Z,15397.00
2023-05-22T06:08:20.895Z,16455.00
2023-05-22T06:09:20.875Z,19069.00
2023-05-22T06:10:20.859Z,15102.00
2023-05-22T06:11:20.854Z,4456.00
2023-05-22T06:12:20.865Z,14674.00
2023-05-22T06:13:20.837Z,16122.00
2023-05-22T06:14:20.834Z,12581.00
2023-05-22T06:15:20.830Z,7479.00
2023-05-22T06:16:20.809Z,16111.00
2023-05-22T06:17:20.845Z,15775.00
2023-05-22T06:18:20.780Z,15938.00
2023-05-22T06:19:20.791Z,17079.00
2023-05-22T06:20:20.779Z,16900.00
2023-05-22T06:21:20.782Z,16842.00
2023-05-22T06:22:20.761Z,17028.00
2023-05-22T06:23:20.759Z,17071.00
2023-05-22T06:24:20.718Z,17023.00
2023-05-22T06:25:20.710Z,18793.00
2023-05-22T06:26:20.710Z,17846.00
2023-05-22T06:27:20.722Z,14923.00
2023-05-22T06:28:20.670Z,13149.00
2023-05-22T06:29:20.662Z,19383.00
2023-05-22T06:30:31.884Z,15048.00
2023-05-22T06:31:20.671Z,18038.00
2023-05-22T06:32:20.740Z,18585.00
2023-05-22T06:33:20.729Z,21027.00
2023-05-22T06:34:20.717Z,10049.00
2023-05-22T06:35:20.605Z,14175.00
2023-05-22T06:36:20.640Z,15484.00
2023-05-22T06:37:20.592Z,22050.00
2023-05-22T06:38:20.580Z,11317.00
2023-05-22T06:39:20.565Z,17244.00
2023-05-22T06:40:20.593Z,11187.00
2023-05-22T06:41:20.555Z,8456.00
2023-05-22T06:42:20.549Z,7931.00
2023-05-22T06:43:20.530Z,5522.00
2023-05-22T06:44:20.507Z,9706.00
2023-05-22T06:45:20.536Z,7052.00
2023-05-22T06:46:20.561Z,6668.00
2023-05-22T06:47:20.501Z,6569.00
2023-05-22T06:48:20.483Z,6367.00
2023-05-22T06:49:20.471Z,6160.00
2023-05-22T06:50:20.475Z,5915.00
2023-05-22T06:51:20.444Z,5661.00
2023-05-22T06:52:20.427Z,5521.00
2023-05-22T06:53:20.487Z,5412.00
2023-05-22T06:54:20.439Z,5301.00
2023-05-22T06:55:20.426Z,5185.00
2023-05-22T06:56:20.400Z,5084.00
2023-05-22T06:57:20.395Z,5036.00
2023-05-22T06:58:20.384Z,5031.00
2023-05-22T06:59:20.386Z,4963.00
2023-05-22T07:00:21.653Z,4924.00
2023-05-22T07:01:20.394Z,4836.00
2023-05-22T07:02:20.334Z,4740.00
2023-05-22T07:03:20.331Z,4628.00
2023-05-22T07:04:20.316Z,4533.00
2023-05-22T07:05:20.361Z,4457.00
2023-05-22T07:06:20.373Z,4376.00
2023-05-22T07:07:20.274Z,4347.00
2023-05-22T07:08:20.290Z,4301.00
2023-05-22T07:09:20.301Z,4259.00
2023-05-22T07:10:20.255Z,4240.00
2023-05-22T07:11:20.261Z,4207.00
2023-05-22T07:12:20.243Z,4214.00
2023-05-22T07:13:20.289Z,4172.00
2023-05-22T07:14:20.208Z,4080.00
2023-05-22T07:15:20.209Z,3996.00
2023-05-22T07:16:20.260Z,3926.00
2023-05-22T07:17:20.282Z,3889.00
2023-05-22T07:18:20.203Z,3860.00
2023-05-22T07:19:20.182Z,3843.00
2023-05-22T07:20:20.168Z,3789.00
2023-05-22T07:21:20.135Z,3737.00
2023-05-22T07:22:20.156Z,3680.00
2023-05-22T07:23:20.128Z,3624.00
2023-05-22T07:24:20.120Z,3586.00
2023-05-22T07:25:20.112Z,3498.00
2023-05-22T07:26:20.093Z,3492.00
2023-05-22T07:27:20.094Z,3451.00
2023-05-22T07:28:20.076Z,3424.00
2023-05-22T07:29:21.879Z,3389.00
2023-05-22T07:30:20.139Z,3352.00
2023-05-22T07:31:20.140Z,3288.00
2023-05-22T07:32:20.068Z,3248.00
2023-05-22T07:33:20.013Z,3201.00
2023-05-22T07:34:19.988Z,3155.00
2023-05-22T07:35:20.003Z,3136.00
2023-05-22T07:36:20.012Z,3077.00
2023-05-22T07:37:19.981Z,3057.00
2023-05-22T07:38:19.971Z,3043.00
2023-05-22T07:39:19.972Z,3016.00
2023-05-22T07:40:19.974Z,2980.00
2023-05-22T07:41:19.975Z,2966.00
2023-05-22T07:42:19.925Z,2951.00
2023-05-22T07:43:19.928Z,2955.00
2023-05-22T07:44:19.906Z,2919.00
2023-05-22T07:45:19.932Z,2942.00
2023-05-22T07:46:19.922Z,2983.00
2023-05-22T07:47:19.877Z,2920.00
2023-05-22T07:48:19.991Z,2903.00
2023-05-22T07:49:19.986Z,2942.00
2023-05-22T07:50:19.859Z,2979.00
2023-05-22T07:51:19.824Z,2991.00
2023-05-22T07:52:19.836Z,2977.00
2023-05-22T07:53:19.835Z,3045.00
2023-05-22T07:54:19.800Z,3056.00
2023-05-22T07:55:19.809Z,3108.00
2023-05-22T07:56:19.800Z,3155.00
2023-05-22T07:57:19.770Z,3179.00
2023-05-22T07:58:19.787Z,3149.00
2023-05-22T07:59:19.761Z,3204.00
2023-05-22T08:00:19.727Z,3338.00
2023-05-22T08:01:19.740Z,3407.00
2023-05-22T08:02:19.813Z,3437.00
2023-05-22T08:03:21.044Z,3443.00
2023-05-22T08:04:19.811Z,3402.00
2023-05-22T08:05:19.725Z,4365.00
2023-05-22T08:06:19.688Z,3863.00
2023-05-22T08:07:19.661Z,3379.00
2023-05-22T08:08:19.642Z,1845.00
2023-05-22T08:09:19.670Z,10581.00
2023-05-22T08:10:19.633Z,5333.00
2023-05-22T08:11:19.622Z,4119.00
2023-05-22T08:12:19.602Z,4607.00
2023-05-22T08:13:19.682Z,4458.00
2023-05-22T08:14:19.591Z,4285.00
2023-05-22T08:15:19.588Z,4262.00
2023-05-22T08:16:19.573Z,4351.00
2023-05-22T08:17:19.603Z,4304.00
2023-05-22T08:18:19.574Z,4550.00
2023-05-22T08:19:19.743Z,4757.00
2023-05-22T08:20:20.157Z,4872.00
2023-05-22T08:21:19.553Z,4942.00
2023-05-22T08:22:19.535Z,5075.00
2023-05-22T08:23:19.539Z,5458.00
2023-05-22T08:24:19.470Z,5434.00
2023-05-22T08:25:19.492Z,6908.00
2023-05-22T08:26:19.463Z,6631.00
2023-05-22T08:27:19.505Z,6865.00
2023-05-22T08:28:19.471Z,5589.00
2023-05-22T08:29:19.450Z,9577.00
2023-05-22T08:30:19.428Z,8095.00
2023-05-22T08:31:19.495Z,7589.00
2023-05-22T08:32:19.421Z,7370.00
2023-05-22T08:33:19.417Z,7255.00
2023-05-22T08:34:19.393Z,7182.00
2023-05-22T08:35:19.440Z,7167.00
2023-05-22T08:36:19.380Z,7133.00
2023-05-22T08:37:19.360Z,7203.00
2023-05-22T08:38:19.373Z,6938.00
2023-05-22T08:39:19.460Z,7029.00
2023-05-22T08:40:19.338Z,3440.00
2023-05-22T08:41:19.428Z,13971.00
2023-05-22T08:42:19.326Z,8073.00
2023-05-22T08:43:19.314Z,7630.00
2023-05-22T08:44:19.280Z,7384.00
2023-05-22T08:45:19.271Z,7141.00
2023-05-22T08:46:19.309Z,7100.00
2023-05-22T08:47:19.400Z,6993.00
2023-05-22T08:48:19.234Z,6873.00
2023-05-22T08:49:19.261Z,4340.00
2023-05-22T08:50:19.268Z,8828.00
2023-05-22T08:51:19.230Z,12954.00
2023-05-22T08:52:19.213Z,9444.00
2023-05-22T08:53:19.204Z,5359.00
2023-05-22T08:54:19.166Z,9527.00
2023-05-22T08:55:19.181Z,16711.00
2023-05-22T08:56:19.164Z,13054.00
2023-05-22T08:57:19.145Z,10016.00
2023-05-22T08:58:19.156Z,9022.00
2023-05-22T08:59:19.175Z,8019.00
2023-05-22T09:00:19.130Z,7943.00
2023-05-22T09:01:19.157Z,8624.00
2023-05-22T09:02:19.097Z,8812.00
2023-05-22T09:03:19.211Z,8025.00
2023-05-22T09:04:19.118Z,5036.00
2023-05-22T09:05:19.157Z,8506.00
2023-05-22T09:06:19.092Z,12537.00
2023-05-22T09:07:19.144Z,12249.00
2023-05-22T09:08:20.981Z,11594.00
2023-05-22T09:09:19.055Z,16198.00
2023-05-22T09:10:19.010Z,10024.00
2023-05-22T09:11:19.032Z,9964.00
2023-05-22T09:12:19.009Z,10919.00
2023-05-22T09:13:18.992Z,14747.00
2023-05-22T09:14:19.003Z,11763.00
2023-05-22T09:15:18.969Z,8687.00
2023-05-22T09:16:19.011Z,8291.00
2023-05-22T09:17:19.060Z,8617.00
2023-05-22T09:18:18.956Z,7448.00
2023-05-22T09:19:18.999Z,12494.00
2023-05-22T09:20:18.918Z,10256.00
2023-05-22T09:21:29.586Z,10352.00
2023-05-22T09:22:18.923Z,11744.00
2023-05-22T09:23:18.935Z,8404.00
2023-05-22T09:24:18.889Z,10307.00
2023-05-22T09:25:18.892Z,12201.00
2023-05-22T09:26:18.857Z,12706.00
2023-05-22T09:27:18.856Z,13541.00
2023-05-22T09:28:18.845Z,10928.00
2023-05-22T09:29:18.834Z,9139.00
2023-05-22T09:30:18.825Z,8408.00
2023-05-22T09:31:18.852Z,10536.00
2023-05-22T09:32:18.820Z,12076.00
2023-05-22T09:33:18.812Z,12395.00
2023-05-22T09:34:18.793Z,10295.00
2023-05-22T09:35:18.789Z,11846.00
2023-05-22T09:36:18.768Z,10328.00
2023-05-22T09:37:18.766Z,10381.00
2023-05-22T09:38:18.746Z,10724.00
2023-05-22T09:39:18.748Z,10313.00
2023-05-22T09:40:18.730Z,10055.00
2023-05-22T09:41:18.737Z,9993.00
2023-05-22T09:42:18.736Z,9726.00
2023-05-22T09:43:18.713Z,9582.00
2023-05-22T09:44:18.690Z,9439.00
2023-05-22T09:45:18.697Z,9200.00
2023-05-22T09:46:18.704Z,9176.00
2023-05-22T09:47:18.717Z,8973.00
2023-05-22T09:48:18.652Z,8931.00
2023-05-22T09:49:18.635Z,8825.00
2023-05-22T09:50:18.622Z,8703.00
2023-05-22T09:51:18.634Z,8719.00
2023-05-22T09:52:18.623Z,8549.00
2023-05-22T09:53:18.608Z,8541.00
2023-05-22T09:54:18.570Z,8431.00
2023-05-22T09:55:18.607Z,8266.00
2023-05-22T09:56:24.289Z,8329.00
2023-05-22T09:57:18.566Z,8242.00
2023-05-22T09:58:18.541Z,8029.00
2023-05-22T09:59:18.533Z,8171.00
2023-05-22T10:00:18.657Z,8103.00
2023-05-22T10:01:18.566Z,7952.00
2023-05-22T10:02:18.509Z,8030.00
2023-05-22T10:03:18.573Z,7868.00
2023-05-22T10:04:18.547Z,7761.00
2023-05-22T10:05:18.504Z,7813.00
2023-05-22T10:06:18.493Z,7732.00
2023-05-22T10:07:18.463Z,7674.00
2023-05-22T10:08:18.439Z,7648.00
2023-05-22T10:09:19.622Z,7595.00
2023-05-22T10:10:18.485Z,7550.00
2023-05-22T10:11:18.423Z,7491.00
2023-05-22T10:12:18.396Z,7491.00
2023-05-22T10:13:18.388Z,7415.00
2023-05-22T10:14:18.404Z,7392.00
2023-05-22T10:15:18.386Z,7455.00
2023-05-22T10:16:18.449Z,7303.00
2023-05-22T10:17:18.367Z,7124.00
2023-05-22T10:18:18.358Z,7106.00
2023-05-22T10:19:18.373Z,7223.00
2023-05-22T10:20:18.341Z,6962.00
2023-05-22T10:21:18.332Z,7396.00
2023-05-22T10:22:18.300Z,8078.00
2023-05-22T10:23:18.324Z,6196.00
2023-05-22T10:24:18.295Z,3884.00
2023-05-22T10:25:18.331Z,6943.00
2023-05-22T10:26:18.260Z,6566.00
2023-05-22T10:27:18.265Z,6752.00
2023-05-22T10:28:18.250Z,6728.00
2023-05-22T10:29:18.242Z,6699.00
2023-05-22T10:30:18.232Z,6752.00
2023-05-22T10:31:18.217Z,6678.00
2023-05-22T10:32:18.198Z,6657.00
2023-05-22T10:33:18.327Z,6643.00
2023-05-22T10:34:18.194Z,6579.00
2023-05-22T10:35:18.180Z,6520.00
2023-05-22T10:36:18.264Z,6441.00
2023-05-22T10:37:19.620Z,6409.00
2023-05-22T10:38:18.171Z,6437.00
2023-05-22T10:39:18.132Z,6339.00
2023-05-22T10:40:18.311Z,6275.00
2023-05-22T10:41:18.123Z,6220.00
2023-05-22T10:42:18.126Z,6169.00
2023-05-22T10:43:18.079Z,6120.00
2023-05-22T10:44:18.106Z,6074.00
2023-05-22T10:45:18.078Z,5974.00
2023-05-22T10:46:18.178Z,5926.00
2023-05-22T10:47:18.081Z,5823.00
2023-05-22T10:48:18.038Z,5850.00
2023-05-22T10:49:18.044Z,5762.00
2023-05-22T10:50:18.046Z,5710.00
2023-05-22T10:51:18.058Z,5627.00
2023-05-22T10:52:18.003Z,5554.00
2023-05-22T10:53:17.984Z,5574.00
2023-05-22T10:54:17.998Z,5343.00
2023-05-22T10:55:17.978Z,5353.00
2023-05-22T10:56:17.994Z,5373.00
2023-05-22T10:57:17.959Z,4976.00
2023-05-22T10:58:17.961Z,5035.00
2023-05-22T10:59:17.952Z,4972.00
2023-05-22T11:00:17.939Z,4983.00
2023-05-22T11:01:17.987Z,4962.00
2023-05-22T11:02:18.023Z,4982.00
2023-05-22T11:03:18.691Z,4936.00
2023-05-22T11:04:17.903Z,4922.00
2023-05-22T11:05:17.895Z,4721.00
2023-05-22T11:06:17.873Z,4797.00
2023-05-22T11:07:17.850Z,4677.00
2023-05-22T11:08:19.426Z,5077.00
2023-05-22T11:09:17.858Z,4824.00
2023-05-22T11:10:17.899Z,4892.00
2023-05-22T11:11:17.822Z,4999.00
2023-05-22T11:12:17.915Z,4825.00
2023-05-22T11:13:17.800Z,4919.00
2023-05-22T11:14:17.801Z,4980.00
2023-05-22T11:15:17.785Z,5045.00
2023-05-22T11:16:17.782Z,5061.00
2023-05-22T11:17:17.763Z,5090.00
2023-05-22T11:18:17.818Z,5033.00
2023-05-22T11:20:17.817Z,5162.00
2023-05-22T11:21:17.723Z,5041.00
2023-05-22T11:22:17.804Z,5329.00
2023-05-22T11:23:17.701Z,5340.00
2023-05-22T11:24:17.794Z,5507.00
2023-05-22T11:25:17.668Z,5251.00
2023-05-22T11:26:17.673Z,5285.00
2023-05-22T11:27:17.681Z,5225.00
2023-05-22T11:28:17.657Z,5253.00
2023-05-22T11:29:17.638Z,5289.00
2023-05-22T11:30:17.805Z,5459.00
2023-05-22T11:31:17.656Z,5499.00
2023-05-22T11:32:17.655Z,5375.00
2023-05-22T11:33:17.679Z,5283.00
2023-05-22T11:34:17.605Z,5245.00
2023-05-22T11:35:17.653Z,5207.00
2023-05-22T11:36:17.581Z,4951.00
2023-05-22T11:37:17.578Z,4878.00
2023-05-22T11:38:17.577Z,4847.00
2023-05-22T11:39:17.584Z,4692.00
2023-05-22T11:40:17.554Z,4608.00
2023-05-22T11:41:17.518Z,4622.00
2023-05-22T11:42:17.556Z,4560.00
2023-05-22T11:43:17.507Z,4462.00
2023-05-22T11:44:17.496Z,4913.00
2023-05-22T11:45:17.479Z,4832.00
2023-05-22T11:46:17.514Z,4766.00
2023-05-22T11:47:17.480Z,4789.00
2023-05-22T11:48:17.490Z,4822.00
2023-05-22T11:49:17.464Z,4704.00
2023-05-22T11:50:29.352Z,4713.00
2023-05-22T11:51:17.637Z,5428.00
2023-05-22T11:52:17.474Z,4615.00
2023-05-22T11:53:17.461Z,3224.00
2023-05-22T11:54:17.509Z,4867.00
2023-05-22T11:55:17.499Z,4868.00
2023-05-22T11:56:17.496Z,4931.00
2023-05-22T11:57:17.433Z,4881.00
2023-05-22T11:58:17.427Z,4840.00
2023-05-22T11:59:17.448Z,4591.00
2023-05-22T12:00:17.426Z,4600.00
2023-05-22T12:01:17.355Z,4781.00
2023-05-22T12:02:17.320Z,4822.00
2023-05-22T12:03:17.364Z,4501.00
2023-05-22T12:04:17.365Z,4620.00
2023-05-22T12:05:17.282Z,5419.00
2023-05-22T12:06:17.583Z,3920.00
2023-05-22T12:07:17.355Z,3550.00
2023-05-22T12:08:17.259Z,2052.00
2023-05-22T12:09:17.250Z,4607.00
2023-05-22T12:10:17.429Z,4608.00
2023-05-22T12:11:17.230Z,4556.00
2023-05-22T12:12:17.228Z,4469.00
2023-05-22T12:13:17.240Z,4481.00
2023-05-22T12:14:17.210Z,4537.00
2023-05-22T12:15:17.207Z,4552.00
2023-05-22T12:16:17.207Z,4581.00
2023-05-22T12:17:17.167Z,4546.00
2023-05-22T12:18:17.144Z,4509.00
2023-05-22T12:19:17.185Z,4534.00
2023-05-22T12:20:17.176Z,4503.00
2023-05-22T12:21:17.120Z,4562.00
2023-05-22T12:22:17.108Z,4083.00
2023-05-22T12:23:17.106Z,4366.00